Time;durP1;ratioP1;P1;durP2;ratioP2;P2;SDS_P1;SDS_P2;PMS_P1;PMS_P2;Temp;Humidity;BMP_temperature;BMP_pressure;BME280_temperature;BME280_humidity;BME280_pressure;Samples;Min_cycle;Max_cycle;Signal;HPM_P1;HPM_P2
2022/03/19 00:19:20;;;;;;;13.15;7.15;;;;;;;4.42;88.34;104260.34;5636632;23;20060;-90
2022/03/19 00:21:45;;;;;;;16.03;6.90;;;;;;;4.34;87.85;104264.53;4936787;29;20454;-91
2022/03/19 00:24:11;;;;;;;16.00;6.80;;;;;;;4.37;88.96;104258.09;4936425;29;20486;-91
2022/03/19 00:39:41;;;;;;;12.00;6.75;;;;;;;4.52;87.81;104258.59;4936391;29;20046;-91
2022/03/19 00:42:07;;;;;;;16.25;7.10;;;;;;;4.42;88.31;104239.97;4934903;29;20028;-91
2022/03/19 01:05:51;;;;;;;10.30;7.30;;;;;;;3.70;90.17;104249.56;5261185;23;20058;-90
2022/03/19 01:11:57;;;;;;;;;;;;;;;;;;;;;
2022/03/19 01:20:27;;;;;;;15.40;8.32;;;;;;;3.31;91.86;104247.38;4954606;29;20042;-90
2022/03/19 01:22:53;;;;;;;16.45;8.35;;;;;;;3.15;92.55;104219.47;4953246;29;20054;-90
2022/03/19 02:26:56;;;;;;;25.40;14.32;;;;;;;3.27;96.78;104185.84;4915419;29;20051;-92
2022/03/19 02:29:34;;;;;;;24.75;12.20;;;;;;;3.23;96.87;104170.31;4898955;29;20484;-91
2022/03/19 02:32:22;;;;;;;33.77;13.70;;;;;;;3.37;96.35;104191.22;4902038;29;20095;-91
2022/03/19 03:15:51;;;;;;;28.70;13.82;;;;;;;2.93;99.35;104138.25;5563005;23;20117;-91
2022/03/19 03:22:18;;;;;;;27.35;12.32;;;;;;;3.09;99.68;104166.13;4874034;29;20114;-92
2022/03/19 03:27:26;;;;;;;26.60;13.13;;;;;;;2.99;100.00;104171.34;4931856;29;20627;-92
2022/03/19 03:30:38;;;;;;;26.75;13.50;;;;;;;3.07;100.00;104165.41;4934051;29;20044;-92
2022/03/19 03:33:18;;;;;;;26.40;13.02;;;;;;;2.93;100.00;104147.97;4936748;29;20127;-91
2022/03/19 03:39:05;;;;;;;27.55;13.27;;;;;;;3.02;100.00;104171.91;4921793;29;20559;-92
2022/03/19 03:57:05;;;;;;;26.58;11.88;;;;;;;2.80;100.00;104140.22;4940017;29;20074;-90
2022/03/19 03:59:34;;;;;;;28.05;12.90;;;;;;;2.90;100.00;104167.63;4923795;29;20027;-91
2022/03/19 04:02:24;;;;;;;25.55;12.30;;;;;;;2.89;100.00;104165.94;4934858;29;20028;-91
2022/03/19 04:31:38;;;;;;;26.10;11.40;;;;;;;2.62;100.00;104148.66;4957678;29;20510;-92
2022/03/19 04:58:18;;;;;;;31.63;12.10;;;;;;;2.35;100.00;104130.53;5319792;23;20439;-92
2022/03/19 05:01:02;;;;;;;23.95;11.43;;;;;;;2.21;100.00;104119.19;4918356;29;20487;-92
2022/03/19 05:47:25;;;;;;;27.50;13.73;;;;;;;2.15;100.00;104143.53;5223370;23;20059;-82
2022/03/19 05:49:50;;;;;;;34.53;14.30;;;;;;;2.14;100.00;104151.56;4953216;29;20023;-83
2022/03/19 05:52:16;;;;;;;34.57;13.93;;;;;;;2.15;100.00;104155.88;4953074;29;20499;-83
2022/03/19 05:54:41;;;;;;;32.55;12.75;;;;;;;2.16;100.00;104149.63;4940295;29;20098;-83
2022/03/19 05:57:06;;;;;;;29.60;13.63;;;;;;;2.16;100.00;104153.16;4929758;29;20046;-82
2022/03/19 05:59:32;;;;;;;21.97;12.53;;;;;;;2.17;100.00;104157.47;4933697;29;20591;-82
2022/03/19 06:01:57;;;;;;;29.13;13.23;;;;;;;2.21;100.00;104152.78;4932644;29;20032;-82
2022/03/19 06:04:22;;;;;;;37.70;13.67;;;;;;;2.27;100.00;104150.50;4933418;29;20396;-83
2022/03/19 06:06:47;;;;;;;23.80;11.47;;;;;;;2.37;100.00;104155.06;4933589;29;20850;-83
2022/03/19 06:09:13;;;;;;;35.17;13.40;;;;;;;2.39;100.00;104151.34;4933642;29;20035;-84
2022/03/19 06:11:39;;;;;;;22.73;11.33;;;;;;;2.51;100.00;104151.31;4932493;29;20028;-84
2022/03/19 06:14:05;;;;;;;36.30;13.50;;;;;;;2.61;100.00;104156.72;4933782;29;20087;-83
2022/03/19 06:16:30;;;;;;;25.23;10.60;;;;;;;2.72;100.00;104156.72;4933625;29;20032;-84
2022/03/19 06:18:56;;;;;;;29.52;12.43;;;;;;;2.81;100.00;104155.16;4916354;29;20472;-84
2022/03/19 06:21:25;;;;;;;31.50;12.90;;;;;;;2.86;100.00;104167.03;4933724;29;20094;-84
2022/03/19 06:23:51;;;;;;;22.33;12.43;;;;;;;2.90;100.00;104156.22;4916719;29;20466;-84
2022/03/19 06:26:17;;;;;;;23.23;11.02;;;;;;;3.00;100.00;104157.13;4933185;29;20159;-83
2022/03/19 06:28:44;;;;;;;27.40;11.27;;;;;;;3.10;100.00;104162.53;4934238;29;20349;-83
2022/03/19 06:31:09;;;;;;;29.73;12.87;;;;;;;3.12;100.00;104158.78;4935893;29;20095;-84
2022/03/19 06:33:34;;;;;;;26.43;12.57;;;;;;;3.25;100.00;104163.09;4938735;29;20786;-84
2022/03/19 06:38:46;;;;;;;36.40;13.65;;;;;;;3.28;100.00;104162.84;4933801;29;20140;-83
2022/03/19 06:41:11;;;;;;;30.60;11.43;;;;;;;3.33;100.00;104166.78;4933048;29;20039;-83
2022/03/19 06:43:37;;;;;;;23.47;12.03;;;;;;;3.39;100.00;104173.38;4933410;29;20062;-84
2022/03/19 06:46:02;;;;;;;25.90;12.95;;;;;;;3.41;100.00;104165.28;4932788;29;20024;-83
2022/03/19 06:48:28;;;;;;;24.37;12.67;;;;;;;3.51;100.00;104168.88;4933453;29;20106;-82
2022/03/19 06:50:54;;;;;;;32.17;13.83;;;;;;;3.57;100.00;104167.50;4933663;29;20119;-83
2022/03/19 06:53:20;;;;;;;24.00;11.25;;;;;;;3.62;100.00;104158.19;4933289;29;20027;-83
2022/03/19 06:55:45;;;;;;;28.30;12.65;;;;;;;3.70;100.00;104159.38;4936758;29;20039;-83
2022/03/19 06:58:10;;;;;;;24.97;11.67;;;;;;;3.72;100.00;104168.03;4933200;29;20031;-83
2022/03/19 07:00:36;;;;;;;24.57;10.33;;;;;;;3.79;100.00;104163.88;4940548;29;20028;-84
2022/03/19 07:03:01;;;;;;;24.65;11.57;;;;;;;3.83;100.00;104161.84;4933365;29;20035;-83
2022/03/19 07:05:28;;;;;;;32.43;12.67;;;;;;;3.83;100.00;104160.00;4933269;29;20082;-83
2022/03/19 07:07:56;;;;;;;30.33;11.73;;;;;;;3.89;100.00;104159.50;4934009;29;20727;-82
2022/03/19 07:10:22;;;;;;;20.17;10.20;;;;;;;3.93;100.00;104168.03;4937232;29;20023;-84
2022/03/19 07:12:52;;;;;;;30.03;12.17;;;;;;;3.97;100.00;104163.28;4936961;29;20043;-84
2022/03/19 07:15:20;;;;;;;22.23;11.93;;;;;;;4.05;100.00;104160.81;4936882;29;20027;-84
2022/03/19 07:17:46;;;;;;;41.15;13.25;;;;;;;4.13;100.00;104168.13;4936739;29;20050;-82
2022/03/19 07:20:13;;;;;;;22.40;11.23;;;;;;;4.19;100.00;104168.44;4919754;29;20028;-85
2022/03/19 07:22:55;;;;;;;23.17;11.38;;;;;;;4.21;100.00;104169.16;4938060;29;20023;-84
2022/03/19 07:25:26;;;;;;;25.88;11.93;;;;;;;4.24;100.00;104168.88;4925165;29;20031;-83
2022/03/19 07:27:54;;;;;;;24.45;10.63;;;;;;;4.29;100.00;104168.47;4936792;29;20479;-82
2022/03/19 07:30:20;;;;;;;27.17;11.63;;;;;;;4.36;100.00;104164.34;4936522;29;20085;-83
2022/03/19 07:32:45;;;;;;;20.90;10.87;;;;;;;4.45;100.00;104172.44;4936518;29;20809;-83
2022/03/19 07:35:13;;;;;;;23.20;9.88;;;;;;;4.54;99.90;104175.13;4936582;29;20028;-83
2022/03/19 07:37:40;;;;;;;22.75;11.10;;;;;;;4.62;99.74;104165.66;4936220;29;20019;-83
2022/03/19 07:40:07;;;;;;;24.90;11.13;;;;;;;4.65;99.81;104160.91;4936162;29;20035;-83
2022/03/19 07:42:32;;;;;;;26.40;11.32;;;;;;;4.74;99.16;104174.38;4936168;29;20027;-83
2022/03/19 07:44:57;;;;;;;25.83;11.07;;;;;;;4.83;99.03;104163.75;4936410;29;20063;-84
2022/03/19 07:47:23;;;;;;;21.87;9.43;;;;;;;4.91;98.61;104167.53;4935483;29;20052;-84
2022/03/19 07:49:48;;;;;;;21.47;10.50;;;;;;;5.05;97.73;104159.16;4936117;29;20411;-84
2022/03/19 07:52:14;;;;;;;23.40;10.33;;;;;;;5.09;98.01;104168.53;4936284;29;20027;-83
2022/03/19 07:54:39;;;;;;;22.75;10.30;;;;;;;5.14;97.87;104154.81;4936173;29;20067;-84
2022/03/19 07:57:06;;;;;;;18.90;9.37;;;;;;;5.23;97.30;104150.47;4917480;29;20119;-84
2022/03/19 07:59:32;;;;;;;21.80;10.15;;;;;;;5.34;96.89;104168.97;4936021;29;20020;-84
2022/03/19 08:01:58;;;;;;;21.55;9.38;;;;;;;5.45;96.35;104163.50;4936196;29;20038;-84
2022/03/19 08:04:24;;;;;;;19.40;8.87;;;;;;;5.50;95.78;104154.25;4935944;29;20394;-84
2022/03/19 08:06:53;;;;;;;22.52;9.48;;;;;;;5.58;95.76;104147.25;4935790;29;20055;-84
2022/03/19 08:09:19;;;;;;;19.23;9.10;;;;;;;5.65;95.29;104157.34;4923123;29;20583;-84
2022/03/19 08:11:45;;;;;;;17.67;7.87;;;;;;;5.76;94.13;104151.84;4936816;29;20034;-84
2022/03/19 08:14:14;;;;;;;22.30;9.13;;;;;;;5.80;93.61;104155.03;4936422;29;20315;-84
2022/03/19 08:16:39;;;;;;;22.17;7.55;;;;;;;5.90;93.01;104155.88;4936628;29;20028;-84
2022/03/19 08:19:05;;;;;;;19.13;7.60;;;;;;;5.98;91.75;104155.16;4936061;29;20032;-84
2022/03/19 08:21:31;;;;;;;15.53;7.80;;;;;;;6.05;91.12;104154.44;4936566;29;20551;-84
2022/03/19 08:23:57;;;;;;;18.90;7.93;;;;;;;6.13;90.99;104159.03;4936181;29;20023;-84
2022/03/19 08:26:22;;;;;;;17.60;7.77;;;;;;;6.13;90.56;104156.38;4935121;29;20423;-84
2022/03/19 08:28:48;;;;;;;21.02;7.65;;;;;;;6.19;89.70;104171.78;4936275;29;20058;-84
2022/03/19 08:31:13;;;;;;;18.63;8.47;;;;;;;6.23;89.04;104167.00;4935498;29;20032;-84
2022/03/19 08:33:38;;;;;;;15.37;8.23;;;;;;;6.35;88.53;104163.16;4935588;29;20488;-84
2022/03/19 08:36:04;;;;;;;21.90;8.27;;;;;;;6.34;88.99;104157.97;4935344;29;20043;-84
2022/03/19 08:41:12;;;;;;;13.60;7.75;;;;;;;6.41;89.39;104153.72;4935391;29;20075;-84
2022/03/19 08:43:38;;;;;;;15.77;6.93;;;;;;;6.54;87.81;104158.72;4936094;29;20024;-83
2022/03/19 08:46:04;;;;;;;16.00;6.85;;;;;;;6.62;86.46;104160.63;4935160;29;20027;-84
2022/03/19 08:48:29;;;;;;;22.03;6.87;;;;;;;6.58;86.79;104160.09;4934887;29;20027;-84
2022/03/19 08:51:39;;;;;;;16.58;6.95;;;;;;;6.68;86.02;104154.72;4935336;29;20073;-84
2022/03/19 08:53:39;;;;;;;15.50;7.00;;;;;;;6.77;85.75;104153.81;4937455;29;20031;-84
2022/03/19 08:56:05;;;;;;;16.23;7.00;;;;;;;6.81;86.02;104149.84;4935309;29;20346;-84
2022/03/19 08:58:31;;;;;;;19.10;6.97;;;;;;;6.92;83.75;104155.97;4935057;29;20034;-84
2022/03/19 09:00:57;;;;;;;17.55;6.93;;;;;;;6.92;83.72;104146.13;4935313;29;20443;-84
2022/03/19 09:03:23;;;;;;;19.53;7.33;;;;;;;7.01;83.44;104155.03;4934804;29;20031;-84
2022/03/19 09:05:48;;;;;;;18.47;7.60;;;;;;;7.09;83.33;104141.81;4934768;29;20315;-84
2022/03/19 09:08:13;;;;;;;16.10;6.77;;;;;;;7.13;83.60;104145.00;4934526;29;20043;-84
2022/03/19 09:10:39;;;;;;;16.93;6.87;;;;;;;7.21;82.95;104147.72;4934800;29;20032;-84
2022/03/19 09:13:06;;;;;;;13.67;5.73;;;;;;;7.20;82.58;104143.41;4934950;29;20395;-83
2022/03/19 09:15:31;;;;;;;15.80;6.82;;;;;;;7.21;82.22;104138.91;4917639;29;20054;-84
2022/03/19 09:17:57;;;;;;;18.48;6.80;;;;;;;7.35;80.57;104146.34;4934333;29;20028;-84
2022/03/19 09:20:23;;;;;;;14.97;6.17;;;;;;;7.37;80.36;104133.69;4935828;29;20028;-84
2022/03/19 09:22:48;;;;;;;19.13;6.87;;;;;;;7.36;80.93;104128.53;4941003;29;20027;-83
2022/03/19 09:25:14;;;;;;;18.50;6.70;;;;;;;7.43;81.59;104133.06;4934325;29;20354;-84
2022/03/19 09:27:39;;;;;;;15.43;6.43;;;;;;;7.52;80.19;104135.78;4934069;29;20031;-84
2022/03/19 09:30:06;;;;;;;14.48;5.40;;;;;;;7.69;78.33;104136.75;4933637;29;20034;-83
2022/03/19 09:32:32;;;;;;;16.02;5.57;;;;;;;7.72;78.29;104134.59;4934922;29;20032;-83
2022/03/19 09:34:58;;;;;;;11.73;5.50;;;;;;;7.74;78.63;104131.78;4934310;29;20075;-83
2022/03/19 09:37:24;;;;;;;12.98;5.63;;;;;;;7.84;77.14;104135.16;4933815;29;20031;-83
2022/03/19 09:39:50;;;;;;;19.48;5.95;;;;;;;7.99;76.97;104138.09;4934762;29;20039;-83
2022/03/19 09:42:15;;;;;;;15.37;4.80;;;;;;;8.03;76.06;104123.41;4933976;29;20028;-83
2022/03/19 09:44:44;;;;;;;11.03;4.73;;;;;;;8.02;77.09;104124.44;4934253;29;20123;-84
2022/03/19 09:47:11;;;;;;;14.38;5.57;;;;;;;8.10;75.87;104125.44;4933569;29;20058;-83
2022/03/19 09:49:36;;;;;;;12.93;5.00;;;;;;;8.13;74.57;104117.94;4932974;29;20475;-85
2022/03/19 09:52:03;;;;;;;13.50;5.20;;;;;;;8.16;74.67;104122.16;4916956;29;20040;-85
2022/03/19 09:54:28;;;;;;;13.57;4.90;;;;;;;8.22;72.71;104124.16;4933560;29;20054;-84
2022/03/19 09:56:54;;;;;;;14.30;4.17;;;;;;;8.26;70.42;104114.81;4916448;29;20471;-84
2022/03/19 09:59:22;;;;;;;12.77;4.25;;;;;;;8.31;70.95;104109.84;4932499;29;20097;-84
2022/03/19 10:01:48;;;;;;;16.30;4.07;;;;;;;8.34;70.90;104109.53;4933842;29;20027;-84
2022/03/19 10:04:17;;;;;;;19.80;4.10;;;;;;;8.36;70.51;104111.22;4933419;29;20023;-84
2022/03/19 10:09:41;;;;;;;11.40;4.25;;;;;;;8.45;69.10;104095.03;4934294;29;20095;-84
2022/03/19 10:12:12;;;;;;;12.18;4.50;;;;;;;8.53;69.66;104093.38;4916338;29;20050;-84
2022/03/19 10:14:37;;;;;;;11.77;3.67;;;;;;;8.65;68.37;104089.44;4933694;29;20051;-84
2022/03/19 10:17:04;;;;;;;6.90;3.50;;;;;;;8.72;66.40;104076.22;4933128;29;20055;-84
2022/03/19 10:19:29;;;;;;;12.57;3.42;;;;;;;8.78;65.98;104071.06;4932056;29;20100;-84
2022/03/19 10:22:06;;;;;;;11.60;3.20;;;;;;;8.86;66.59;104061.34;4933572;29;20118;-85
2022/03/19 10:24:36;;;;;;;13.18;3.35;;;;;;;8.94;64.58;104069.38;4933761;29;20111;-84
2022/03/19 10:27:02;;;;;;;16.65;3.10;;;;;;;9.03;61.84;104062.19;4933209;29;20534;-84
2022/03/19 10:29:33;;;;;;;13.53;3.60;;;;;;;9.07;62.34;104060.84;4933561;29;20095;-85
2022/03/19 10:32:04;;;;;;;9.60;3.35;;;;;;;9.19;61.13;104051.47;4933819;29;20079;-84
2022/03/19 10:34:30;;;;;;;10.68;3.15;;;;;;;9.23;57.59;104047.47;4922631;29;20058;-84
2022/03/19 10:36:56;;;;;;;9.70;2.95;;;;;;;9.28;56.83;104038.09;4934840;29;20410;-84
2022/03/19 10:39:25;;;;;;;10.90;3.30;;;;;;;9.39;57.24;104037.72;4932945;29;20024;-84
2022/03/19 10:41:51;;;;;;;14.43;3.37;;;;;;;9.42;55.57;104031.19;4933567;29;20592;-84
2022/03/19 10:44:19;;;;;;;10.23;3.03;;;;;;;9.49;55.81;104024.16;4939768;29;20031;-85
2022/03/19 10:46:49;;;;;;;7.97;3.50;;;;;;;9.71;56.63;104033.28;4944017;29;20095;-84
2022/03/19 10:49:16;;;;;;;8.50;2.97;;;;;;;9.80;53.40;104028.72;4932299;29;20388;-84
2022/03/19 10:52:14;;;;;;;9.38;2.97;;;;;;;9.88;55.86;104025.16;4933374;29;20020;-84
2022/03/19 10:54:40;;;;;;;15.57;2.95;;;;;;;9.96;54.19;104022.47;4932326;29;20403;-84
2022/03/19 10:57:06;;;;;;;7.05;2.35;;;;;;;10.10;52.03;104007.50;4932579;29;20042;-84
2022/03/19 10:59:31;;;;;;;10.03;2.50;;;;;;;10.23;50.01;104004.22;4931946;29;20415;-84
2022/03/19 11:01:59;;;;;;;4.20;2.03;;;;;;;10.43;50.97;104008.13;4933307;29;20095;-84
2022/03/19 11:04:24;;;;;;;11.87;2.07;;;;;;;10.56;46.61;103998.66;4932496;29;20082;-84
2022/03/19 11:06:52;;;;;;;8.43;2.00;;;;;;;10.63;44.48;104001.47;4932900;29;20027;-84
2022/03/19 11:09:20;;;;;;;8.10;1.92;;;;;;;10.74;43.33;103993.81;4932809;29;20027;-84
2022/03/19 11:11:53;;;;;;;7.27;2.00;;;;;;;10.81;43.89;103985.03;4932932;29;20738;-84
2022/03/19 11:14:24;;;;;;;5.50;2.10;;;;;;;10.84;43.25;103982.84;4932720;29;20276;-84
2022/03/19 11:19:39;;;;;;;6.28;1.90;;;;;;;11.04;42.08;103971.56;4933490;29;20094;-84
2022/03/19 11:22:08;;;;;;;13.23;2.30;;;;;;;11.16;41.20;103969.25;4933083;29;20032;-84
2022/03/19 11:24:44;;;;;;;10.93;2.20;;;;;;;11.20;40.03;103970.53;4933063;29;20027;-84
2022/03/19 11:27:11;;;;;;;9.48;2.30;;;;;;;11.23;40.06;103958.63;4932257;29;20035;-84
2022/03/19 11:29:36;;;;;;;5.88;1.95;;;;;;;11.35;37.83;103962.50;4932774;29;20042;-84
2022/03/19 11:32:02;;;;;;;5.65;2.22;;;;;;;11.34;39.05;103956.28;4933726;29;20486;-84
2022/03/19 11:34:43;;;;;;;7.13;1.90;;;;;;;11.36;40.06;103948.06;4932352;29;20036;-84
2022/03/19 11:37:09;;;;;;;6.10;2.10;;;;;;;11.35;38.64;103955.25;4932013;29;20110;-84
2022/03/19 11:39:34;;;;;;;8.35;2.58;;;;;;;11.34;37.86;103942.84;4932731;29;20264;-84
2022/03/19 11:41:59;;;;;;;5.03;1.80;;;;;;;11.49;38.63;103944.72;4931547;29;20039;-84
2022/03/19 11:44:27;;;;;;;11.17;2.27;;;;;;;11.55;37.05;103946.63;4932461;29;20032;-84
2022/03/19 11:47:09;;;;;;;5.47;1.48;;;;;;;11.65;38.50;103930.22;4928694;29;20031;-84
2022/03/19 11:49:50;;;;;;;6.40;1.80;;;;;;;11.68;37.49;103935.22;4936143;29;20147;-84
2022/03/19 11:53:05;;;;;;;5.18;1.67;;;;;;;11.84;35.95;103920.72;4931153;29;20554;-84
2022/03/19 11:55:36;;;;;;;5.53;1.50;;;;;;;11.86;33.87;103918.69;4927826;29;20039;-84
2022/03/19 11:58:06;;;;;;;13.23;1.80;;;;;;;11.91;32.70;103916.25;4935816;29;20323;-84
2022/03/19 12:00:35;;;;;;;12.63;1.67;;;;;;;11.88;30.46;103903.19;4936021;29;20063;-84
2022/03/19 12:03:17;;;;;;;5.60;1.52;;;;;;;12.03;29.71;103900.47;4936264;29;20093;-85
2022/03/19 12:05:48;;;;;;;6.32;1.60;;;;;;;12.00;30.66;103887.41;4951460;29;20021;-85
2022/03/19 12:08:17;;;;;;;4.07;1.83;;;;;;;12.09;30.91;103904.25;4935384;29;20027;-85
2022/03/19 12:11:17;;;;;;;4.15;1.40;;;;;;;12.21;30.37;103891.97;4936344;29;20035;-85
2022/03/19 12:13:47;;;;;;;5.28;1.65;;;;;;;12.18;30.52;103881.59;4930621;29;20048;-84
2022/03/19 12:16:33;;;;;;;3.70;1.67;;;;;;;12.16;30.44;103880.94;4935901;29;20432;-84
2022/03/19 12:18:58;;;;;;;6.53;1.88;;;;;;;12.29;30.59;103871.31;4935947;29;20036;-83
2022/03/19 12:21:24;;;;;;;7.53;2.07;;;;;;;12.33;31.80;103864.53;4934698;29;20459;-84
2022/03/19 12:24:17;;;;;;;7.53;1.85;;;;;;;12.44;33.87;103872.06;4935975;29;20038;-83
2022/03/19 12:26:49;;;;;;;6.03;1.93;;;;;;;12.49;31.79;103858.88;4935683;29;20024;-84
2022/03/19 12:29:16;;;;;;;3.13;1.60;;;;;;;12.48;31.87;103848.31;4935853;29;20802;-85
2022/03/19 12:31:47;;;;;;;3.33;1.73;;;;;;;12.50;32.42;103844.38;4935932;29;20043;-85
2022/03/19 12:34:15;;;;;;;6.03;2.35;;;;;;;12.61;33.75;103843.00;4935532;29;20027;-84
2022/03/19 12:36:41;;;;;;;11.52;4.05;;;;;;;12.67;32.82;103836.84;4934183;29;20035;-84
2022/03/19 12:39:06;;;;;;;17.37;7.47;;;;;;;12.66;32.77;103828.97;4935574;29;20031;-84
2022/03/19 12:41:32;;;;;;;34.17;10.20;;;;;;;12.79;31.75;103830.91;4935876;29;20067;-84
2022/03/19 12:44:07;;;;;;;8.63;2.67;;;;;;;12.71;31.84;103823.81;4936133;29;20020;-85
2022/03/19 12:46:37;;;;;;;11.05;2.92;;;;;;;12.77;31.01;103817.66;4935187;29;20035;-84
2022/03/19 12:49:09;;;;;;;8.23;3.08;;;;;;;12.73;31.84;103802.94;4936483;29;20032;-85
2022/03/19 12:51:37;;;;;;;20.50;6.18;;;;;;;12.73;32.24;103811.81;4936373;29;20024;-85
2022/03/19 12:54:18;;;;;;;7.03;2.65;;;;;;;12.76;32.67;103802.53;4939157;29;20031;-84
2022/03/19 12:56:45;;;;;;;7.20;2.85;;;;;;;12.87;31.69;103788.50;4939661;29;20533;-85
2022/03/19 12:59:28;;;;;;;7.18;2.15;;;;;;;12.83;31.54;103787.22;4935907;29;20475;-85
2022/03/19 13:01:55;;;;;;;3.33;1.60;;;;;;;12.73;30.96;103790.28;4942300;29;20027;-85
2022/03/19 13:04:23;;;;;;;10.05;2.00;;;;;;;12.73;30.05;103792.16;4934595;29;20024;-85
2022/03/19 13:06:49;;;;;;;6.47;1.70;;;;;;;12.64;30.08;103777.22;4934070;29;20075;-86
2022/03/19 13:09:15;;;;;;;3.13;1.20;;;;;;;12.62;31.26;103774.72;4934713;29;20287;-85
2022/03/19 13:11:44;;;;;;;8.85;1.75;;;;;;;12.69;31.26;103772.06;4933858;29;20023;-85
2022/03/19 13:14:14;;;;;;;7.30;1.98;;;;;;;12.76;31.03;103764.88;4934711;29;20055;-85
2022/03/19 13:16:42;;;;;;;5.53;1.70;;;;;;;12.84;30.35;103767.38;4934620;29;20039;-85
2022/03/19 13:19:07;;;;;;;4.95;1.60;;;;;;;12.84;30.76;103759.28;4935172;29;20028;-85
2022/03/19 13:21:35;;;;;;;8.47;1.60;;;;;;;12.80;30.88;103751.84;4935385;29;20020;-85
2022/03/19 13:24:02;;;;;;;5.32;1.40;;;;;;;12.80;30.85;103741.88;4935597;29;20034;-85
2022/03/19 13:26:33;;;;;;;10.75;1.77;;;;;;;12.83;31.16;103746.88;4940231;29;20033;-85
2022/03/19 13:29:03;;;;;;;3.47;1.37;;;;;;;12.84;31.56;103720.81;4940077;29;20144;-85
2022/03/19 13:31:34;;;;;;;6.97;1.50;;;;;;;12.92;31.69;103727.88;4934888;29;20289;-85
2022/03/19 13:34:01;;;;;;;5.20;1.42;;;;;;;13.05;31.37;103725.19;4935343;29;20104;-85
2022/03/19 13:36:31;;;;;;;3.85;1.67;;;;;;;12.97;31.32;103703.84;4934091;29;20036;-85
2022/03/19 13:38:58;;;;;;;5.10;1.48;;;;;;;12.96;30.35;103707.59;4934994;29;20435;-85
2022/03/19 13:41:24;;;;;;;5.85;1.60;;;;;;;12.95;31.09;103706.75;4934129;29;20023;-85
2022/03/19 13:43:49;;;;;;;4.50;1.20;;;;;;;13.01;29.71;103691.66;4934577;29;20042;-85
2022/03/19 13:46:16;;;;;;;9.77;1.50;;;;;;;13.04;30.47;103702.00;4933451;29;20047;-85
2022/03/19 13:48:42;;;;;;;3.45;1.27;;;;;;;12.95;30.50;103679.84;4934395;29;20028;-85
2022/03/19 13:51:08;;;;;;;7.23;0.90;;;;;;;12.97;29.71;103691.22;4933877;29;20062;-85
2022/03/19 13:53:44;;;;;;;4.95;1.13;;;;;;;13.05;31.83;103689.41;4934351;29;20024;-85
2022/03/19 13:56:10;;;;;;;6.03;1.20;;;;;;;13.12;29.37;103672.22;4933439;29;20542;-85
2022/03/19 13:58:36;;;;;;;1.73;0.80;;;;;;;13.08;29.64;103673.66;4917136;29;20291;-85
2022/03/19 14:01:13;;;;;;;8.18;1.25;;;;;;;13.21;29.56;103666.63;4930922;29;20086;-85
2022/03/19 14:03:40;;;;;;;2.67;1.00;;;;;;;13.18;29.42;103668.69;4934063;29;20046;-85
2022/03/19 14:06:06;;;;;;;5.80;0.98;;;;;;;13.21;29.03;103662.06;4932012;29;20031;-85
2022/03/19 14:08:32;;;;;;;5.55;1.10;;;;;;;13.17;29.77;103655.44;4934288;29;20028;-85
2022/03/19 14:10:57;;;;;;;6.00;1.43;;;;;;;13.11;30.21;103643.63;4934320;29;20031;-86
2022/03/19 14:13:43;;;;;;;5.13;1.37;;;;;;;13.18;30.87;103649.84;4939400;29;20023;-85
2022/03/19 14:16:10;;;;;;;3.70;1.30;;;;;;;13.27;31.33;103636.19;4935073;29;20034;-85
2022/03/19 14:18:36;;;;;;;5.78;1.50;;;;;;;13.26;31.97;103645.28;4934207;29;20475;-86
2022/03/19 14:21:03;;;;;;;8.03;1.33;;;;;;;13.31;30.56;103642.81;4934920;29;20038;-85
2022/03/19 14:23:31;;;;;;;5.25;1.23;;;;;;;13.22;30.53;103647.56;4946086;29;20079;-83
2022/03/19 14:25:56;;;;;;;2.92;0.82;;;;;;;13.27;28.71;103630.78;4940214;29;20039;-83
2022/03/19 14:28:23;;;;;;;3.80;1.20;;;;;;;13.15;29.25;103639.47;4937730;29;20036;-83
2022/03/19 14:30:50;;;;;;;4.65;0.80;;;;;;;13.08;29.95;103619.81;4935059;29;20036;-83
2022/03/19 14:33:15;;;;;;;2.97;0.90;;;;;;;13.07;29.55;103620.84;4934658;29;20119;-85
2022/03/19 14:35:47;;;;;;;3.80;1.05;;;;;;;13.13;29.76;103617.34;4934418;29;20106;-83
2022/03/19 14:38:19;;;;;;;3.83;0.80;;;;;;;13.08;30.20;103610.91;4933681;29;20031;-83
2022/03/19 14:40:45;;;;;;;5.20;0.90;;;;;;;13.16;29.89;103616.91;4934558;29;20306;-83
2022/03/19 14:43:14;;;;;;;8.40;1.08;;;;;;;13.04;27.87;103610.47;4934158;29;20668;-83
2022/03/19 14:45:40;;;;;;;6.43;0.60;;;;;;;13.00;26.95;103588.53;4933426;29;20558;-84
2022/03/19 14:48:06;;;;;;;2.17;0.80;;;;;;;12.94;27.63;103593.94;4932728;29;20135;-84
2022/03/19 14:50:31;;;;;;;2.92;0.65;;;;;;;12.90;27.62;103595.38;4934083;29;20387;-84
2022/03/19 14:52:56;;;;;;;2.57;0.90;;;;;;;13.03;27.40;103592.69;4933070;29;20024;-84
2022/03/19 14:55:23;;;;;;;3.55;0.80;;;;;;;13.04;27.50;103583.56;4932811;29;20030;-84
2022/03/19 14:57:50;;;;;;;4.03;0.83;;;;;;;12.81;28.02;103568.66;4932543;29;20016;-84
2022/03/19 15:00:16;;;;;;;6.65;0.80;;;;;;;12.86;27.68;103581.50;4931856;29;20395;-84
2022/03/19 15:02:41;;;;;;;4.22;0.90;;;;;;;12.88;27.95;103574.03;4933179;29;20028;-85
2022/03/19 15:05:07;;;;;;;2.97;0.73;;;;;;;12.92;27.62;103567.22;4933168;29;20028;-84
2022/03/19 15:07:32;;;;;;;4.72;0.90;;;;;;;12.85;28.12;103564.50;4932695;29;20036;-85
2022/03/19 15:09:58;;;;;;;3.10;1.00;;;;;;;12.96;27.61;103565.75;4933317;29;20488;-85
2022/03/19 15:12:24;;;;;;;7.03;1.10;;;;;;;13.00;29.08;103556.25;4915496;29;20114;-85
2022/03/19 15:14:50;;;;;;;7.53;0.82;;;;;;;13.01;28.05;103540.91;4933086;29;20035;-84
2022/03/19 15:17:16;;;;;;;5.13;0.80;;;;;;;12.87;27.51;103562.44;4932096;29;20036;-85
2022/03/19 15:19:41;;;;;;;8.53;1.10;;;;;;;12.89;29.33;103559.53;4932921;29;20052;-85
2022/03/19 15:22:07;;;;;;;7.70;0.98;;;;;;;12.86;28.20;103539.25;4932765;29;20036;-84
2022/03/19 15:24:32;;;;;;;3.67;1.10;;;;;;;12.69;28.54;103544.22;4933420;29;20063;-84
2022/03/19 15:26:58;;;;;;;6.00;0.97;;;;;;;12.75;29.30;103537.19;4941202;29;20099;-85
2022/03/19 15:29:24;;;;;;;3.13;0.82;;;;;;;12.80;29.06;103536.56;4936777;29;20031;-84
2022/03/19 15:31:49;;;;;;;3.03;0.80;;;;;;;12.83;28.74;103534.28;4936854;29;20095;-84
2022/03/19 15:34:14;;;;;;;4.45;1.40;;;;;;;12.73;28.49;103525.81;4936378;29;20487;-85
2022/03/19 15:36:40;;;;;;;2.97;1.00;;;;;;;12.59;28.35;103519.59;4936036;29;20028;-84
2022/03/19 15:39:09;;;;;;;4.97;1.13;;;;;;;12.65;28.45;103531.38;4936200;29;20038;-84
2022/03/19 15:41:34;;;;;;;2.20;0.93;;;;;;;12.56;29.23;103523.53;4936394;29;20284;-85
2022/03/19 15:44:00;;;;;;;5.25;1.00;;;;;;;12.52;29.50;103514.22;4936409;29;20467;-85
2022/03/19 15:46:25;;;;;;;3.77;1.00;;;;;;;12.57;28.51;103514.44;4936259;29;20095;-84
2022/03/19 15:48:50;;;;;;;3.57;0.83;;;;;;;12.52;28.22;103511.53;4936552;29;20434;-85
2022/03/19 15:51:16;;;;;;;3.53;0.90;;;;;;;12.50;28.97;103507.38;4936165;29;20036;-84
2022/03/19 15:53:41;;;;;;;4.97;0.70;;;;;;;12.49;28.54;103503.84;4936156;29;20054;-84
2022/03/19 15:56:08;;;;;;;3.70;0.90;;;;;;;12.48;28.25;103509.44;4935336;29;20074;-84
2022/03/19 15:58:35;;;;;;;5.43;0.98;;;;;;;12.36;29.21;103496.59;4918906;29;20033;-84
2022/03/19 16:01:00;;;;;;;4.45;0.80;;;;;;;12.41;28.60;103510.25;4934028;29;20611;-85
2022/03/19 16:03:25;;;;;;;5.93;0.80;;;;;;;12.21;28.97;103499.47;4935543;29;20040;-84
2022/03/19 16:05:51;;;;;;;5.90;1.43;;;;;;;12.09;29.08;103503.78;4935961;29;20043;-84
2022/03/19 16:08:17;;;;;;;4.18;0.80;;;;;;;12.13;31.13;103506.91;4935288;29;20657;-84
2022/03/19 16:10:42;;;;;;;2.93;1.30;;;;;;;12.00;30.90;103499.63;4935851;29;20043;-84
2022/03/19 16:13:08;;;;;;;4.60;0.83;;;;;;;11.84;30.51;103511.50;4935829;29;20024;-83
2022/03/19 16:15:33;;;;;;;8.13;1.27;;;;;;;11.68;31.40;103499.28;4918597;29;20634;-84
2022/03/19 16:17:58;;;;;;;3.53;1.30;;;;;;;11.58;31.63;103502.31;4935582;29;20531;-84
2022/03/19 16:20:24;;;;;;;7.23;0.90;;;;;;;11.48;32.40;103494.63;4935722;29;20546;-83
2022/03/19 16:22:51;;;;;;;4.60;1.00;;;;;;;11.36;32.85;103497.84;4935999;29;20031;-83